Time;durP1;ratioP1;P1;durP2;ratioP2;P2;SDS_P1;SDS_P2;PMS_P1;PMS_P2;Temp;Humidity;BMP_temperature;BMP_pressure;BME280_temperature;BME280_humidity;BME280_pressure;Samples;Min_cycle;Max_cycle;Signal;HPM_P1;HPM_P2
2023/09/20 00:02:12;;;;;;;2.05;1.30;;;;;;;19.80;57.98;99673.03;4445152;32;34186;-73
2023/09/20 00:04:42;;;;;;;2.62;1.67;;;;;;;19.86;57.96;99676.91;4437089;32;33785;-72
2023/09/20 00:07:10;;;;;;;3.33;1.62;;;;;;;19.66;58.55;99676.47;4435319;32;33886;-72
2023/09/20 00:09:38;;;;;;;2.50;1.27;;;;;;;19.76;58.54;99675.25;4425135;32;33558;-72
2023/09/20 00:12:07;;;;;;;2.30;1.50;;;;;;;19.70;58.86;99681.37;4434749;32;33606;-71
2023/09/20 00:14:34;;;;;;;3.22;1.90;;;;;;;19.48;59.65;99684.81;4435214;32;34444;-72
2023/09/20 00:17:02;;;;;;;4.20;2.45;;;;;;;19.66;59.24;99688.19;4434682;32;34986;-72
2023/09/20 00:19:30;;;;;;;4.40;2.33;;;;;;;19.73;59.12;99693.75;4435606;32;33632;-73
2023/09/20 00:21:58;;;;;;;5.97;1.70;;;;;;;19.77;59.02;99698.69;4435087;32;33705;-72
2023/09/20 00:24:25;;;;;;;4.93;1.95;;;;;;;19.85;58.72;99688.81;4436183;32;34936;-72
2023/09/20 00:26:53;;;;;;;2.15;0.93;;;;;;;19.88;58.73;99694.72;4435059;32;35181;-72
2023/09/20 00:29:24;;;;;;;1.05;0.65;;;;;;;19.89;58.75;99696.41;4435891;32;33238;-73
2023/09/20 00:31:52;;;;;;;4.22;1.23;;;;;;;19.91;58.70;99688.94;4440440;32;33928;-72
2023/09/20 00:34:20;;;;;;;13.95;1.77;;;;;;;19.63;59.58;99693.94;4435131;32;35819;-72
2023/09/20 00:36:48;;;;;;;5.00;1.08;;;;;;;19.75;59.05;99684.41;4436255;32;35235;-72
2023/09/20 00:39:17;;;;;;;4.22;1.50;;;;;;;19.82;58.65;99687.28;4436091;32;33796;-75
2023/09/20 00:41:45;;;;;;;6.50;3.12;;;;;;;19.85;58.62;99692.38;4436474;32;34827;-75
2023/09/20 00:44:12;;;;;;;1.75;1.20;;;;;;;19.91;58.38;99691.66;4433661;32;33952;-72
2023/09/20 00:46:42;;;;;;;3.33;2.15;;;;;;;19.99;58.30;99694.31;4436311;32;34920;-72
2023/09/20 00:49:10;;;;;;;7.70;1.40;;;;;;;20.07;57.94;99698.06;4419191;32;35203;-72
2023/09/20 00:51:38;;;;;;;3.47;1.73;;;;;;;20.08;57.68;99705.16;4435482;32;34743;-72
2023/09/20 00:54:06;;;;;;;2.70;1.55;;;;;;;20.12;57.44;99706.50;4434983;32;34036;-71
2023/09/20 00:56:35;;;;;;;3.30;1.75;;;;;;;20.13;57.44;99703.63;4435379;32;33803;-71
2023/09/20 00:59:06;;;;;;;3.17;1.30;;;;;;;20.13;57.58;99700.06;4436697;32;33099;-71
2023/09/20 01:01:34;;;;;;;5.10;2.80;;;;;;;20.13;57.63;99692.75;4439396;32;33502;-71
2023/09/20 01:04:04;;;;;;;3.35;1.60;;;;;;;20.11;57.64;99692.06;4436652;32;33737;-71
2023/09/20 01:06:33;;;;;;;1.90;0.90;;;;;;;20.11;57.58;99689.34;4450059;32;34096;-71
2023/09/20 01:09:01;;;;;;;2.55;1.55;;;;;;;20.12;57.55;99688.31;4429043;32;34312;-71
2023/09/20 01:11:29;;;;;;;3.60;1.85;;;;;;;20.11;57.50;99683.91;4438526;32;35050;-71
2023/09/20 01:13:59;;;;;;;3.78;1.50;;;;;;;20.07;57.63;99688.03;4438370;32;34918;-71
2023/09/20 01:16:27;;;;;;;2.05;1.40;;;;;;;20.09;57.55;99679.69;4435217;32;35192;-72
2023/09/20 01:18:54;;;;;;;1.52;1.20;;;;;;;20.04;57.70;99677.50;4436619;32;35040;-71
2023/09/20 01:21:22;;;;;;;2.87;1.55;;;;;;;19.98;57.92;99680.94;4435413;32;32367;-72
2023/09/20 01:23:51;;;;;;;4.57;2.00;;;;;;;19.86;58.21;99679.63;4449273;32;33961;-72
2023/09/20 01:26:19;;;;;;;5.00;1.90;;;;;;;19.85;58.29;99681.50;4433787;32;34911;-72
2023/09/20 01:28:47;;;;;;;3.60;1.75;;;;;;;19.74;58.67;99677.31;4426525;32;33650;-72
2023/09/20 01:31:15;;;;;;;1.70;1.27;;;;;;;19.76;58.72;99680.69;4437408;32;34607;-71
2023/09/20 01:33:43;;;;;;;4.10;2.03;;;;;;;19.76;58.85;99679.84;4438431;32;33953;-72
2023/09/20 01:36:10;;;;;;;2.87;1.85;;;;;;;19.76;58.94;99680.69;4436411;32;33918;-72
2023/09/20 01:38:39;;;;;;;2.50;1.55;;;;;;;19.87;58.58;99682.19;4443778;32;33605;-72
2023/09/20 01:41:08;;;;;;;2.87;1.48;;;;;;;19.86;58.54;99685.91;4439953;32;33868;-72
2023/09/20 01:43:38;;;;;;;3.75;1.70;;;;;;;19.74;58.80;99685.44;4439521;32;34177;-72
2023/09/20 01:46:07;;;;;;;2.62;1.35;;;;;;;19.76;58.51;99682.53;4439486;32;34076;-72
2023/09/20 01:48:36;;;;;;;2.15;1.40;;;;;;;19.50;58.96;99685.47;4442912;32;33427;-72
2023/09/20 01:51:04;;;;;;;2.30;1.12;;;;;;;19.54;58.38;99678.69;4449281;32;33629;-72
2023/09/20 01:53:32;;;;;;;2.30;1.10;;;;;;;19.46;58.29;99693.12;4449374;32;34024;-72
2023/09/20 01:56:00;;;;;;;4.62;2.35;;;;;;;19.54;57.93;99686.81;4438573;32;35130;-72
2023/09/20 01:58:28;;;;;;;2.95;1.35;;;;;;;19.60;57.80;99686.13;4445849;32;34180;-72
2023/09/20 02:00:56;;;;;;;6.55;2.00;;;;;;;19.61;57.55;99687.81;4436661;32;33571;-72
2023/09/20 02:03:27;;;;;;;2.58;1.52;;;;;;;19.42;58.30;99694.50;4455726;32;33762;-73
2023/09/20 02:05:56;;;;;;;4.87;1.33;;;;;;;19.43;58.00;99687.22;4454871;32;33926;-72
2023/09/20 02:08:23;;;;;;;3.08;1.73;;;;;;;19.37;57.92;99685.19;4448347;32;33702;-72
2023/09/20 02:10:51;;;;;;;4.15;1.90;;;;;;;19.37;57.99;99685.19;4444910;32;34851;-73
2023/09/20 02:13:19;;;;;;;1.60;1.05;;;;;;;19.37;57.93;99680.59;4450262;32;34527;-73
2023/09/20 02:15:47;;;;;;;1.65;1.08;;;;;;;19.27;58.08;99683.50;4453091;32;33856;-73
2023/09/20 02:18:15;;;;;;;1.95;1.30;;;;;;;19.30;58.04;99691.28;4460541;32;34029;-72
2023/09/20 02:20:44;;;;;;;1.85;1.10;;;;;;;19.27;57.81;99683.50;4452093;32;34651;-72
2023/09/20 02:23:12;;;;;;;2.42;1.62;;;;;;;19.06;58.67;99685.88;4451427;32;35273;-72
2023/09/20 02:25:42;;;;;;;2.28;1.27;;;;;;;19.16;58.38;99689.25;4452084;32;34785;-72
2023/09/20 02:28:11;;;;;;;3.35;1.55;;;;;;;19.13;58.50;99692.31;4455262;32;33421;-73
2023/09/20 02:30:39;;;;;;;12.32;2.25;;;;;;;19.21;58.38;99695.03;4451262;32;33896;-72
2023/09/20 02:33:08;;;;;;;3.22;1.58;;;;;;;19.21;58.58;99691.47;4440962;32;34042;-73
2023/09/20 02:35:37;;;;;;;4.12;1.85;;;;;;;19.18;58.66;99684.53;4454132;32;34829;-73
2023/09/20 02:38:05;;;;;;;2.05;1.58;;;;;;;19.07;59.10;99685.72;4452047;32;34312;-73
2023/09/20 02:40:35;;;;;;;2.87;1.40;;;;;;;19.05;59.40;99690.47;4458445;32;33619;-73
2023/09/20 02:43:08;;;;;;;3.45;1.58;;;;;;;19.18;59.33;99683.69;4457046;32;34066;-72
2023/09/20 02:45:39;;;;;;;1.87;1.17;;;;;;;19.09;59.75;99682.84;4448636;32;34109;-72
2023/09/20 02:48:08;;;;;;;2.00;1.33;;;;;;;19.05;60.05;99682.34;4465783;32;32958;-72
2023/09/20 02:50:36;;;;;;;2.42;1.48;;;;;;;19.15;59.83;99692.16;4454715;32;33447;-71
2023/09/20 02:53:05;;;;;;;4.82;1.87;;;;;;;19.22;59.49;99694.00;4451567;32;33784;-72
2023/09/20 02:55:34;;;;;;;1.98;1.20;;;;;;;19.27;59.20;99691.62;4450536;32;33817;-71
2023/09/20 02:58:02;;;;;;;2.00;1.05;;;;;;;19.31;59.06;99692.97;4451892;32;34145;-72
2023/09/20 03:00:32;;;;;;;2.05;1.27;;;;;;;19.38;58.75;99693.12;4451065;32;34549;-72
2023/09/20 03:03:02;;;;;;;1.90;1.12;;;;;;;19.40;58.48;99688.37;4446684;32;34100;-70
2023/09/20 03:05:33;;;;;;;6.43;1.90;;;;;;;19.43;58.17;99688.06;4446304;32;33718;-70
2023/09/20 03:08:04;;;;;;;3.83;1.08;;;;;;;19.46;58.05;99697.72;4459233;32;33500;-71
2023/09/20 03:10:33;;;;;;;2.95;2.03;;;;;;;19.47;57.98;99692.09;4449448;32;34627;-71
2023/09/20 03:13:03;;;;;;;2.72;1.62;;;;;;;19.44;58.16;99691.59;4447629;32;34073;-70
2023/09/20 03:15:32;;;;;;;3.03;1.67;;;;;;;19.33;58.42;99691.97;4456590;32;34866;-70
2023/09/20 03:18:05;;;;;;;7.85;2.62;;;;;;;19.27;58.81;99698.94;4441658;32;33184;-71
2023/09/20 03:20:33;;;;;;;11.48;2.33;;;;;;;19.24;59.00;99700.12;4447706;32;33646;-71
2023/09/20 03:23:05;;;;;;;1.55;0.95;;;;;;;19.06;59.49;99705.72;4462480;32;34126;-71
2023/09/20 03:25:36;;;;;;;1.00;0.73;;;;;;;19.03;59.52;99699.78;4457417;32;33973;-71
2023/09/20 03:28:12;;;;;;;2.45;1.20;;;;;;;19.13;59.26;99697.75;4450439;32;33593;-71
2023/09/20 03:30:40;;;;;;;4.78;2.28;;;;;;;19.07;59.17;99703.87;4443670;32;33902;-71
2023/09/20 03:33:08;;;;;;;2.00;1.12;;;;;;;19.10;58.85;99698.13;4448538;32;34429;-71
2023/09/20 03:35:37;;;;;;;3.60;1.37;;;;;;;19.17;58.65;99699.13;4452539;32;33995;-71
2023/09/20 03:38:05;;;;;;;14.68;2.00;;;;;;;19.17;58.66;99693.69;4447889;32;34671;-70
2023/09/20 03:40:33;;;;;;;2.60;1.67;;;;;;;19.07;59.07;99698.47;4448135;32;34849;-69
2023/09/20 03:43:07;;;;;;;3.10;1.60;;;;;;;19.16;58.92;99693.84;4451973;32;34059;-70
2023/09/20 03:45:35;;;;;;;3.17;1.80;;;;;;;19.18;58.88;99691.81;4452549;32;34252;-69
2023/09/20 03:48:03;;;;;;;1.98;1.00;;;;;;;19.21;58.78;99689.59;4456974;32;34548;-69
2023/09/20 03:50:31;;;;;;;2.47;1.62;;;;;;;19.26;58.63;99686.38;4455848;32;33752;-69
2023/09/20 03:53:00;;;;;;;5.62;2.55;;;;;;;19.24;58.67;99691.13;4452565;32;33917;-69
2023/09/20 03:55:28;;;;;;;1.98;1.33;;;;;;;19.25;58.92;99688.25;4452325;32;33808;-69
2023/09/20 03:57:56;;;;;;;2.62;1.50;;;;;;;19.16;59.57;99694.69;4452776;32;33696;-69
2023/09/20 04:00:31;;;;;;;4.93;2.10;;;;;;;19.06;60.12;99696.75;4448322;32;33514;-70
2023/09/20 04:03:01;;;;;;;4.85;2.00;;;;;;;19.00;60.46;99687.41;4451132;32;34986;-69
2023/09/20 04:05:29;;;;;;;4.53;2.40;;;;;;;18.87;61.14;99681.66;4450598;32;34039;-69
2023/09/20 04:08:12;;;;;;;3.15;1.73;;;;;;;18.90;61.31;99684.03;4465508;32;33649;-68
2023/09/20 04:10:40;;;;;;;5.85;2.12;;;;;;;18.78;61.80;99691.69;4454399;32;35018;-68
2023/09/20 04:13:09;;;;;;;3.10;2.20;;;;;;;18.85;61.71;99686.41;4452723;32;33853;-69
2023/09/20 04:15:40;;;;;;;4.55;2.05;;;;;;;18.81;61.94;99695.87;4450828;32;33800;-69
2023/09/20 04:18:09;;;;;;;5.57;1.65;;;;;;;18.81;62.06;99691.34;4452081;32;34471;-68
2023/09/20 04:20:38;;;;;;;2.37;1.35;;;;;;;18.44;62.85;99689.06;4455447;32;33607;-68
2023/09/20 04:23:06;;;;;;;2.08;1.10;;;;;;;18.58;61.98;99695.66;4450942;32;33999;-67
2023/09/20 04:25:34;;;;;;;4.93;1.52;;;;;;;18.44;61.81;99699.06;4452320;32;34991;-68
2023/09/20 04:28:02;;;;;;;2.47;1.33;;;;;;;18.74;60.58;99700.28;4451777;32;33270;-67
2023/09/20 04:30:30;;;;;;;4.43;1.75;;;;;;;18.79;60.25;99697.94;4423181;32;33326;-68
2023/09/20 04:32:59;;;;;;;2.97;1.42;;;;;;;18.63;60.77;99690.59;4422344;32;36684;-68
2023/09/20 04:35:27;;;;;;;1.95;1.08;;;;;;;18.58;60.77;99701.94;4419859;32;33936;-69
2023/09/20 04:37:55;;;;;;;2.47;1.25;;;;;;;18.80;60.07;99705.88;4423487;32;32933;-67
2023/09/20 04:40:24;;;;;;;1.17;0.82;;;;;;;18.80;59.88;99708.59;4424235;32;32363;-68
2023/09/20 04:42:52;;;;;;;2.35;1.27;;;;;;;18.89;59.64;99706.75;4420007;32;34160;-68
2023/09/20 04:45:19;;;;;;;0.90;0.68;;;;;;;18.79;59.82;99716.91;4419210;32;34226;-68
2023/09/20 04:47:49;;;;;;;3.30;1.17;;;;;;;18.81;59.63;99712.16;4408821;32;34623;-68
2023/09/20 04:50:18;;;;;;;2.83;1.40;;;;;;;18.91;59.41;99717.41;4420588;32;34656;-68
2023/09/20 04:52:47;;;;;;;1.95;1.00;;;;;;;19.05;59.32;99717.59;4420761;32;35007;-68
2023/09/20 04:55:15;;;;;;;1.85;0.82;;;;;;;19.19;59.20;99715.22;4432451;32;33742;-68
2023/09/20 04:57:45;;;;;;;5.80;2.10;;;;;;;19.34;58.93;99710.78;4427881;32;33371;-68
2023/09/20 05:00:16;;;;;;;3.72;1.70;;;;;;;19.41;58.75;99727.22;4429775;32;33847;-68
2023/09/20 05:02:44;;;;;;;1.85;1.10;;;;;;;19.50;58.71;99726.19;4448340;32;33830;-68
2023/09/20 05:05:12;;;;;;;3.60;1.70;;;;;;;19.43;58.83;99727.91;4452667;32;33977;-68
2023/09/20 05:07:40;;;;;;;2.83;1.62;;;;;;;19.62;58.85;99738.41;4444939;32;33616;-68
2023/09/20 05:10:09;;;;;;;2.65;1.58;;;;;;;19.70;58.78;99734.84;4442286;32;33703;-71
2023/09/20 05:12:38;;;;;;;3.05;1.65;;;;;;;19.71;58.84;99734.69;4456900;32;33839;-72
2023/09/20 05:15:06;;;;;;;4.50;1.85;;;;;;;19.94;58.43;99729.34;4465255;32;34717;-70
2023/09/20 05:17:34;;;;;;;2.35;1.52;;;;;;;20.25;57.67;99736.66;4465951;32;33444;-70
2023/09/20 05:20:02;;;;;;;4.90;1.87;;;;;;;20.30;57.75;99737.00;4461008;32;34705;-70
2023/09/20 05:22:30;;;;;;;2.28;1.30;;;;;;;20.39;57.52;99735.94;4450534;32;35237;-69
2023/09/20 05:24:58;;;;;;;2.05;1.45;;;;;;;20.85;56.35;99735.16;4440866;32;35498;-69
2023/09/20 05:27:25;;;;;;;2.80;1.50;;;;;;;21.35;55.00;99736.47;4451710;32;34750;-69
2023/09/20 05:29:53;;;;;;;5.85;2.83;;;;;;;21.33;55.25;99733.06;4456481;32;33717;-69
2023/09/20 05:32:21;;;;;;;6.28;2.83;;;;;;;21.23;55.69;99730.59;4457896;32;34120;-69
2023/09/20 05:34:50;;;;;;;6.72;2.12;;;;;;;21.23;55.76;99738.75;4450041;32;34935;-69
2023/09/20 05:37:18;;;;;;;16.45;3.12;;;;;;;21.26;55.93;99745.72;4451006;32;33439;-69
2023/09/20 05:39:48;;;;;;;2.60;1.40;;;;;;;21.26;56.19;99748.44;4453402;32;33791;-69
2023/09/20 05:42:15;;;;;;;2.72;1.90;;;;;;;21.34;56.24;99757.34;4454774;32;33797;-69
2023/09/20 05:44:43;;;;;;;5.78;1.90;;;;;;;21.33;56.62;99761.12;4452465;32;34219;-69
2023/09/20 05:47:11;;;;;;;6.25;2.10;;;;;;;21.33;56.77;99757.56;4459509;32;33357;-69
2023/09/20 05:49:39;;;;;;;6.00;2.45;;;;;;;21.35;56.44;99761.81;4449689;32;34379;-69
2023/09/20 05:52:07;;;;;;;3.30;1.62;;;;;;;21.37;56.14;99772.50;4446963;32;33869;-69
2023/09/20 05:54:36;;;;;;;2.95;2.00;;;;;;;21.36;56.04;99770.81;4456017;32;33539;-69
2023/09/20 05:57:03;;;;;;;3.70;1.77;;;;;;;21.18;56.68;99762.94;4461872;32;33521;-69
2023/09/20 05:59:31;;;;;;;2.40;1.50;;;;;;;21.21;56.78;99757.13;4455131;32;33884;-69
2023/09/20 06:01:59;;;;;;;3.92;1.35;;;;;;;21.33;56.80;99761.12;4448111;32;33811;-69
2023/09/20 06:04:27;;;;;;;2.58;1.60;;;;;;;21.39;56.92;99754.12;4448657;32;33870;-69
2023/09/20 06:06:55;;;;;;;3.90;2.10;;;;;;;21.44;57.09;99762.56;4450968;32;34578;-69
2023/09/20 06:09:22;;;;;;;5.90;1.83;;;;;;;21.50;57.28;99761.84;4447763;32;34071;-69
2023/09/20 06:11:51;;;;;;;5.35;2.20;;;;;;;21.57;57.50;99765.53;4436311;32;34968;-69
2023/09/20 06:14:18;;;;;;;5.18;2.60;;;;;;;21.61;57.72;99769.56;4438604;32;35101;-69
2023/09/20 06:16:46;;;;;;;6.72;2.62;;;;;;;21.45;58.78;99769.72;4447627;32;34257;-69
2023/09/20 06:19:16;;;;;;;5.25;2.37;;;;;;;21.78;57.69;99770.25;4445411;32;33842;-69
2023/09/20 06:21:46;;;;;;;3.60;2.05;;;;;;;22.00;57.35;99771.19;4449341;32;34134;-69
2023/09/20 06:24:15;;;;;;;6.40;1.90;;;;;;;22.16;57.06;99766.63;4448109;32;33775;-69
2023/09/20 06:26:43;;;;;;;4.22;1.73;;;;;;;22.21;57.05;99767.72;4444706;32;33241;-69
2023/09/20 06:29:12;;;;;;;3.00;1.73;;;;;;;22.24;57.11;99775.53;4435979;32;35132;-69
2023/09/20 06:31:40;;;;;;;5.80;2.45;;;;;;;22.27;57.13;99774.31;4449645;32;34915;-69
2023/09/20 06:34:08;;;;;;;4.87;2.35;;;;;;;22.30;57.53;99780.22;4446401;32;33789;-69
2023/09/20 06:36:35;;;;;;;5.22;2.78;;;;;;;22.35;57.64;99774.22;4398656;32;33381;-69
2023/09/20 06:39:07;;;;;;;5.10;2.80;;;;;;;22.46;57.26;99778.31;4390656;32;34798;-69
2023/09/20 06:41:37;;;;;;;5.15;1.95;;;;;;;22.47;57.35;99772.69;4401519;32;33771;-69
2023/09/20 06:44:08;;;;;;;4.93;2.00;;;;;;;22.47;57.29;99769.97;4389422;32;33986;-69
2023/09/20 06:46:35;;;;;;;3.87;2.20;;;;;;;22.32;56.87;99780.03;4393223;32;33434;-69
2023/09/20 06:49:03;;;;;;;5.47;2.15;;;;;;;22.54;56.01;99780.97;4402308;32;34139;-69
2023/09/20 06:51:31;;;;;;;4.60;2.15;;;;;;;22.59;55.96;99780.37;4398777;32;33793;-69
2023/09/20 06:53:58;;;;;;;3.85;2.05;;;;;;;22.61;55.95;99776.41;4391752;32;33601;-69
2023/09/20 06:56:26;;;;;;;3.37;1.80;;;;;;;22.70;55.73;99772.53;4389812;32;33235;-69
2023/09/20 06:58:55;;;;;;;4.53;2.17;;;;;;;22.72;55.58;99783.25;4396982;32;33809;-69
2023/09/20 07:01:25;;;;;;;8.20;2.78;;;;;;;22.63;55.96;99789.84;4391836;32;33570;-70
2023/09/20 07:03:53;;;;;;;7.60;2.72;;;;;;;22.61;56.28;99789.22;4404904;32;33775;-69
2023/09/20 07:06:21;;;;;;;6.22;2.40;;;;;;;22.79;56.07;99792.34;4411057;32;34083;-69
2023/09/20 07:08:48;;;;;;;5.60;1.98;;;;;;;22.35;57.63;99793.31;4446369;32;33633;-69
2023/09/20 07:11:17;;;;;;;3.22;1.73;;;;;;;22.88;56.37;99793.06;4450794;32;34048;-69
2023/09/20 07:13:45;;;;;;;2.97;1.48;;;;;;;22.90;56.48;99791.00;4441193;32;34889;-69
2023/09/20 07:16:12;;;;;;;3.20;1.87;;;;;;;22.97;55.80;99791.94;4440212;32;34470;-69
2023/09/20 07:18:44;;;;;;;5.30;2.50;;;;;;;22.90;55.78;99793.75;4438581;32;34965;-69
2023/09/20 07:21:14;;;;;;;3.50;1.12;;;;;;;22.96;55.58;99798.47;4449847;32;33755;-69
2023/09/20 07:23:42;;;;;;;1.40;0.82;;;;;;;23.06;55.61;99807.19;4450568;32;33874;-69
2023/09/20 07:26:10;;;;;;;3.58;1.65;;;;;;;23.06;55.13;99796.25;4446333;32;33655;-70
2023/09/20 07:28:37;;;;;;;4.78;2.20;;;;;;;23.02;55.32;99801.25;4433930;32;33629;-70
2023/09/20 07:31:06;;;;;;;3.45;1.83;;;;;;;23.17;55.02;99803.91;4434160;32;34876;-70
2023/09/20 07:33:38;;;;;;;4.10;1.67;;;;;;;23.32;54.64;99806.59;4435159;32;33868;-70
2023/09/20 07:36:06;;;;;;;4.10;1.23;;;;;;;23.52;53.58;99808.66;4444258;32;33504;-69
2023/09/20 07:38:36;;;;;;;3.67;1.40;;;;;;;23.60;52.97;99806.62;4440455;32;33824;-69
2023/09/20 07:41:09;;;;;;;1.67;0.80;;;;;;;23.69;53.09;99801.88;4438858;32;33889;-69
2023/09/20 07:43:39;;;;;;;1.73;1.10;;;;;;;23.94;52.94;99805.84;4439572;32;34510;-69
2023/09/20 07:46:07;;;;;;;2.20;0.82;;;;;;;24.26;52.26;99803.50;4434521;32;32263;-69
2023/09/20 07:48:37;;;;;;;3.40;1.48;;;;;;;24.30;51.85;99799.34;4447155;32;33462;-72
2023/09/20 07:51:10;;;;;;;5.45;1.55;;;;;;;24.62;51.04;99800.56;4431850;32;35246;-73
2023/09/20 07:53:41;;;;;;;;;;;;;;;24.73;51.17;99799.12;4443329;32;34213;-73
2023/09/20 07:56:11;;;;;;;3.28;1.23;;;;;;;25.51;48.29;99796.75;4437693;32;36359;-74
2023/09/20 07:58:40;;;;;;;3.15;1.50;;;;;;;25.79;47.83;99802.03;4434028;32;33636;-72
2023/09/20 08:01:12;;;;;;;1.85;1.05;;;;;;;25.76;46.85;99796.97;4439071;32;35231;-70
2023/09/20 08:03:50;;;;;;;2.80;1.42;;;;;;;25.73;46.98;99794.66;4417046;32;32594;-71
2023/09/20 08:06:20;;;;;;;4.28;1.42;;;;;;;25.70;47.17;99800.56;4434733;32;33044;-70
2023/09/20 08:08:48;;;;;;;4.90;1.75;;;;;;;25.76;46.52;99798.88;4428670;32;33615;-71
2023/09/20 08:11:16;;;;;;;3.70;1.85;;;;;;;25.65;46.52;99797.63;4414395;32;33487;-70
2023/09/20 08:13:52;;;;;;;2.28;1.08;;;;;;;25.46;47.27;99793.00;4431580;32;32857;-72
2023/09/20 08:16:21;;;;;;;6.75;1.83;;;;;;;25.81;46.64;99801.00;4446072;32;35713;-72
2023/09/20 08:21:38;;;;;;;2.80;1.65;;;;;;;25.83;47.04;99804.38;4447525;32;35226;-71
2023/09/20 09:00:25;;;;;;;3.78;1.73;;;;;;;25.07;47.74;99783.62;4398445;32;31720;-71
2023/09/20 09:02:58;;;;;;;2.75;1.45;;;;;;;25.65;46.85;99783.91;4396943;32;33514;-72
2023/09/20 09:05:27;;;;;;;5.50;2.03;;;;;;;25.57;47.31;99784.12;4401709;32;34564;-72
2023/09/20 09:08:00;;;;;;;3.15;1.25;;;;;;;25.78;46.85;99777.59;4397807;32;33746;-74
2023/09/20 09:10:29;;;;;;;4.53;1.42;;;;;;;25.53;46.78;99778.22;4397376;32;35062;-71
2023/09/20 09:12:57;;;;;;;2.33;1.37;;;;;;;25.98;46.07;99770.19;4397327;32;34374;-72
2023/09/20 09:15:26;;;;;;;2.78;1.45;;;;;;;25.34;47.24;99770.84;4397872;32;31890;-73
2023/09/20 09:17:54;;;;;;;6.50;0.88;;;;;;;25.77;45.82;99763.00;4406322;32;34656;-72
2023/09/20 09:20:23;;;;;;;3.45;1.35;;;;;;;26.05;45.61;99764.69;4419101;32;33377;-72
2023/09/20 09:22:51;;;;;;;3.53;1.48;;;;;;;25.42;46.58;99761.56;4400532;32;33492;-72
2023/09/20 09:25:25;;;;;;;4.32;1.40;;;;;;;26.06;44.69;99754.56;4396798;32;35569;-70
2023/09/20 09:27:53;;;;;;;3.60;1.67;;;;;;;26.20;43.58;99757.06;4395770;32;33368;-71
2023/09/20 09:30:21;;;;;;;2.62;1.48;;;;;;;26.18;44.16;99741.84;4400533;32;34573;-72
2023/09/20 09:32:50;;;;;;;4.25;1.77;;;;;;;26.09;44.48;99741.25;4418623;32;33555;-70
2023/09/20 09:35:19;;;;;;;5.93;1.40;;;;;;;26.36;43.69;99738.44;4417997;32;33778;-72
2023/09/20 09:37:50;;;;;;;5.87;1.80;;;;;;;25.92;43.81;99732.66;4416871;32;32859;-72
2023/09/20 09:40:18;;;;;;;3.90;1.83;;;;;;;26.16;43.71;99744.84;4422617;32;34737;-72
2023/09/20 09:42:46;;;;;;;2.33;1.02;;;;;;;25.48;45.60;99742.37;4416531;32;34662;-73
2023/09/20 09:45:29;;;;;;;3.00;0.95;;;;;;;25.40;46.12;99736.28;4417026;32;34697;-73
2023/09/20 09:47:59;;;;;;;4.22;1.48;;;;;;;26.02;42.90;99726.72;4422997;32;35742;-72
2023/09/20 09:50:34;;;;;;;4.50;1.58;;;;;;;25.69;44.45;99730.34;4435838;32;34423;-73
2023/09/20 09:53:02;;;;;;;1.52;0.80;;;;;;;25.91;44.82;99733.72;4438405;32;34059;-74
2023/09/20 09:55:30;;;;;;;1.30;0.62;;;;;;;25.66;45.08;99729.94;4416899;32;33451;-73
2023/09/20 09:57:58;;;;;;;4.28;1.58;;;;;;;26.14;42.80;99730.47;4429117;32;32795;-73
2023/09/20 10:00:26;;;;;;;5.70;1.77;;;;;;;26.32;42.79;99735.25;4428266;32;33992;-73
2023/09/20 10:02:55;;;;;;;3.70;1.58;;;;;;;26.43;42.04;99725.50;4426753;32;34525;-71
2023/09/20 10:05:24;;;;;;;3.20;1.50;;;;;;;26.25;43.38;99729.78;4429049;32;33285;-73
2023/09/20 10:07:58;;;;;;;3.85;1.20;;;;;;;26.88;42.36;99723.59;4442014;32;33575;-72
2023/09/20 10:10:27;;;;;;;4.32;1.58;;;;;;;27.04;42.82;99713.97;4428518;32;33967;-73
2023/09/20 10:12:55;;;;;;;4.53;1.60;;;;;;;27.22;43.29;99715.97;4442258;32;34622;-74
2023/09/20 10:15:24;;;;;;;5.32;1.30;;;;;;;27.23;42.05;99719.56;4441582;32;32584;-74
2023/09/20 10:17:56;;;;;;;3.35;1.05;;;;;;;27.27;41.70;99715.31;4445521;32;32990;-74
2023/09/20 10:20:24;;;;;;;3.62;1.00;;;;;;;27.13;39.69;99718.16;4460739;32;33377;-74
2023/09/20 10:22:52;;;;;;;3.25;1.05;;;;;;;27.40;39.92;99709.69;4438542;32;33864;-74
2023/09/20 10:25:32;;;;;;;3.65;2.15;;;;;;;27.36;40.18;99703.81;4432052;32;33567;-74
2023/09/20 10:28:18;;;;;;;3.67;1.33;;;;;;;27.49;39.55;99707.50;4428262;32;35267;-74
2023/09/20 10:30:56;;;;;;;3.15;1.23;;;;;;;27.16;39.69;99706.72;4430604;32;31611;-73
2023/09/20 10:33:45;;;;;;;4.35;1.40;;;;;;;27.71;39.00;99700.50;4431270;32;33270;-71
2023/09/20 10:36:18;;;;;;;4.30;1.45;;;;;;;27.95;38.18;99708.94;4430788;32;33452;-71
2023/09/20 10:38:47;;;;;;;3.15;1.35;;;;;;;27.66;39.30;99705.84;4428020;32;32760;-72
2023/09/20 10:41:16;;;;;;;2.92;1.65;;;;;;;28.08;39.12;99701.38;4430367;32;33177;-71
2023/09/20 10:43:48;;;;;;;2.70;1.20;;;;;;;28.23;38.74;99695.47;4436246;32;34665;-71
2023/09/20 10:46:18;;;;;;;3.37;1.30;;;;;;;27.57;39.32;99701.69;4431096;32;33784;-72
2023/09/20 10:48:51;;;;;;;3.20;1.10;;;;;;;27.29;38.57;99703.03;4436575;32;35646;-73
2023/09/20 10:51:54;;;;;;;3.55;1.10;;;;;;;27.62;38.56;99697.22;4451201;32;33528;-72
2023/09/20 10:54:26;;;;;;;1.95;0.85;;;;;;;28.26;37.71;99685.94;4350910;32;33255;-72
2023/09/20 10:56:58;;;;;;;1.62;0.90;;;;;;;28.31;37.38;99686.06;4349225;32;33500;-71
2023/09/20 10:59:26;;;;;;;1.90;0.90;;;;;;;28.55;36.58;99679.63;4344228;32;34105;-72
2023/09/20 11:01:59;;;;;;;3.28;1.10;;;;;;;28.55;36.35;99676.88;4350038;32;33871;-72
2023/09/20 11:04:28;;;;;;;2.78;1.20;;;;;;;28.10;36.99;99671.72;4344338;32;33790;-72
2023/09/20 11:07:00;;;;;;;4.97;1.62;;;;;;;28.17;37.25;99668.06;4347028;32;34867;-72
2023/09/20 11:09:33;;;;;;;3.25;1.52;;;;;;;27.69;37.58;99677.88;4358488;32;32934;-72
2023/09/20 11:12:09;;;;;;;3.75;1.70;;;;;;;28.26;36.07;99674.94;4346580;32;33385;-72
2023/09/20 11:14:41;;;;;;;2.33;1.20;;;;;;;28.64;35.70;99671.03;4350286;32;32377;-76
2023/09/20 11:17:13;;;;;;;4.75;1.15;;;;;;;28.41;36.14;99663.50;4349246;32;33700;-72
2023/09/20 11:19:42;;;;;;;2.72;0.80;;;;;;;28.75;36.21;99656.47;4369974;32;34912;-71
2023/09/20 11:22:09;;;;;;;2.37;1.00;;;;;;;28.29;35.83;99653.28;4365372;32;33188;-72
2023/09/20 11:24:41;;;;;;;5.28;1.23;;;;;;;27.88;36.85;99648.50;4345702;32;33372;-72
2023/09/20 11:27:11;;;;;;;2.97;1.23;;;;;;;27.15;37.76;99660.22;4354267;32;32584;-72
2023/09/20 11:29:48;;;;;;;2.53;1.40;;;;;;;27.45;37.48;99654.91;4363500;32;33720;-73
2023/09/20 11:32:21;;;;;;;3.62;1.27;;;;;;;27.30;38.29;99659.91;4413566;32;32511;-73
2023/09/20 11:34:50;;;;;;;3.33;1.05;;;;;;;27.32;39.19;99660.50;4413008;32;33512;-73
2023/09/20 11:37:21;;;;;;;3.28;1.30;;;;;;;27.54;38.11;99656.25;4421130;32;34093;-72
2023/09/20 11:39:50;;;;;;;3.50;1.42;;;;;;;27.47;37.92;99657.41;4418390;32;33599;-73
2023/09/20 11:42:47;;;;;;;2.80;1.12;;;;;;;27.25;38.92;99654.22;4428426;32;33661;-73
2023/09/20 11:45:16;;;;;;;3.05;1.42;;;;;;;26.94;39.72;99653.22;4393202;32;32359;-72
2023/09/20 11:47:50;;;;;;;5.07;1.20;;;;;;;27.66;37.96;99641.75;4394102;32;34091;-71
2023/09/20 11:50:21;;;;;;;3.62;1.35;;;;;;;27.34;36.84;99653.72;4382847;32;33757;-69
2023/09/20 11:52:48;;;;;;;1.58;0.85;;;;;;;27.25;36.86;99645.97;4383064;32;32204;-72
2023/09/20 11:55:19;;;;;;;2.50;1.10;;;;;;;27.01;38.33;99639.41;4383282;32;32189;-71
2023/09/20 11:57:47;;;;;;;1.48;0.80;;;;;;;27.31;37.45;99631.34;4400739;32;32378;-71
2023/09/20 12:00:22;;;;;;;3.75;1.10;;;;;;;27.90;37.60;99626.28;4398499;32;34930;-72
2023/09/20 12:02:51;;;;;;;2.22;0.75;;;;;;;28.20;35.94;99627.16;4395143;32;32132;-72
2023/09/20 12:05:19;;;;;;;2.87;1.25;;;;;;;28.48;35.31;99623.81;4398497;32;33214;-71
2023/09/20 12:07:59;;;;;;;6.75;1.17;;;;;;;28.20;35.97;99627.16;4397491;32;34665;-72
2023/09/20 12:10:29;;;;;;;4.75;1.25;;;;;;;28.66;35.68;99614.63;4403038;32;34964;-73
2023/09/20 12:12:57;;;;;;;5.12;1.30;;;;;;;28.36;36.24;99622.91;4396173;32;32559;-72
2023/09/20 12:15:25;;;;;;;1.65;0.98;;;;;;;28.90;35.46;99623.81;4398355;32;34419;-73
2023/09/20 12:17:57;;;;;;;2.10;0.95;;;;;;;28.97;35.18;99619.00;4376953;32;32286;-73
2023/09/20 12:20:25;;;;;;;3.50;0.85;;;;;;;28.55;35.02;99610.78;4379239;32;33919;-73
2023/09/20 12:23:01;;;;;;;2.70;1.23;;;;;;;28.46;35.52;99608.62;4365151;32;32036;-73
2023/09/20 12:25:30;;;;;;;1.75;0.68;;;;;;;28.69;35.33;99608.66;4382788;32;33256;-72